createdAt,value
2018-08-21T00:00:03.019Z,20.75
2018-08-21T00:01:03.588Z,20.73
2018-08-21T00:02:04.149Z,20.66
2018-08-21T00:03:04.713Z,20.66
2018-08-21T00:04:05.284Z,20.63
2018-08-21T00:05:05.843Z,20.65
2018-08-21T00:06:06.400Z,20.70
2018-08-21T00:07:06.953Z,20.70
2018-08-21T00:08:07.507Z,20.70
2018-08-21T00:09:08.058Z,20.69
2018-08-21T00:10:08.615Z,20.65
2018-08-21T00:11:09.161Z,20.72
2018-08-21T00:12:09.713Z,20.70
2018-08-21T00:13:10.264Z,20.66
2018-08-21T00:14:10.814Z,20.72
2018-08-21T00:15:11.363Z,20.75
2018-08-21T00:16:11.917Z,20.65
2018-08-21T00:17:12.472Z,20.67
2018-08-21T00:18:13.020Z,20.70
2018-08-21T00:19:13.569Z,20.69
2018-08-21T00:20:14.123Z,20.72
2018-08-21T00:21:14.679Z,20.67
2018-08-21T00:22:15.227Z,20.65
2018-08-21T00:23:15.783Z,20.63
2018-08-21T00:24:16.338Z,20.65
2018-08-21T00:25:16.893Z,20.57
2018-08-21T00:26:17.440Z,20.63
2018-08-21T00:27:17.992Z,20.62
2018-08-21T00:28:18.547Z,20.55
2018-08-21T00:29:19.104Z,20.60
2018-08-21T00:30:19.662Z,20.60
2018-08-21T00:31:20.215Z,20.59
2018-08-21T00:32:20.770Z,20.54
2018-08-21T00:33:21.320Z,20.59
2018-08-21T00:34:21.876Z,20.51
2018-08-21T00:35:22.433Z,20.59
2018-08-21T00:36:22.993Z,20.59
2018-08-21T00:37:23.548Z,20.52
2018-08-21T00:38:24.101Z,20.60
2018-08-21T00:39:24.660Z,20.51
2018-08-21T00:40:25.212Z,20.59
2018-08-21T00:41:25.760Z,20.59
2018-08-21T00:42:26.315Z,20.62
2018-08-21T00:43:26.873Z,20.60
2018-08-21T00:44:27.421Z,20.57
2018-08-21T00:45:27.984Z,20.51
2018-08-21T00:46:28.536Z,20.59
2018-08-21T00:47:29.092Z,20.48
2018-08-21T00:48:29.649Z,20.52
2018-08-21T00:49:30.206Z,20.54
2018-08-21T00:50:30.759Z,20.54
2018-08-21T00:51:31.316Z,20.48
2018-08-21T00:52:31.869Z,20.52
2018-08-21T00:53:32.439Z,20.50
2018-08-21T00:54:33.009Z,20.59
2018-08-21T00:55:33.559Z,20.51
2018-08-21T00:56:34.112Z,20.51
2018-08-21T00:57:34.669Z,20.55
2018-08-21T00:58:35.224Z,20.55
2018-08-21T00:59:35.780Z,20.54
2018-08-21T01:00:36.339Z,20.43
2018-08-21T01:01:36.892Z,20.42
2018-08-21T01:02:37.448Z,20.44
2018-08-21T01:03:38.002Z,20.35
2018-08-21T01:04:38.550Z,20.32
2018-08-21T01:05:39.104Z,20.31
2018-08-21T01:06:39.658Z,20.28
2018-08-21T01:07:40.211Z,20.29
2018-08-21T01:08:40.759Z,20.29
2018-08-21T01:09:41.316Z,20.36
2018-08-21T01:10:41.873Z,20.32
2018-08-21T01:11:42.426Z,20.34
2018-08-21T01:12:42.974Z,20.39
2018-08-21T01:13:43.536Z,20.34
2018-08-21T01:14:44.090Z,20.28
2018-08-21T01:15:44.644Z,20.34
2018-08-21T01:16:45.201Z,20.34
2018-08-21T01:17:45.758Z,20.28
2018-08-21T01:18:46.323Z,20.31
2018-08-21T01:19:46.877Z,20.35
2018-08-21T01:20:47.432Z,20.34
2018-08-21T01:21:47.988Z,20.28
2018-08-21T01:22:48.546Z,20.34
2018-08-21T01:23:49.092Z,20.42
2018-08-21T01:24:49.649Z,20.42
2018-08-21T01:25:50.202Z,20.42
2018-08-21T01:26:50.756Z,20.31
2018-08-21T01:27:51.314Z,20.42
2018-08-21T01:28:51.875Z,20.34
2018-08-21T01:29:52.431Z,20.26
2018-08-21T01:30:52.976Z,20.24
2018-08-21T01:31:53.530Z,20.29
2018-08-21T01:32:54.083Z,20.24
2018-08-21T01:33:54.635Z,20.24
2018-08-21T01:34:55.186Z,20.17
2018-08-21T01:35:55.737Z,20.25
2018-08-21T01:36:56.290Z,20.19
2018-08-21T01:37:56.839Z,20.25
2018-08-21T01:38:57.394Z,20.32
2018-08-21T01:39:57.942Z,20.32
2018-08-21T01:40:58.491Z,20.36
2018-08-21T01:41:59.049Z,20.28
2018-08-21T01:42:59.606Z,20.36
2018-08-21T01:44:00.163Z,20.31
2018-08-21T01:45:00.720Z,20.32
2018-08-21T01:46:01.273Z,20.29
2018-08-21T01:47:01.827Z,20.28
2018-08-21T01:48:02.373Z,20.29
2018-08-21T01:49:02.930Z,20.21
2018-08-21T01:50:03.484Z,20.21
2018-08-21T01:51:04.034Z,20.26
2018-08-21T01:52:04.593Z,20.29
2018-08-21T01:53:05.143Z,20.24
2018-08-21T01:54:05.698Z,20.29
2018-08-21T01:55:06.247Z,20.11
2018-08-21T01:56:06.799Z,20.29
2018-08-21T01:57:07.349Z,20.24
2018-08-21T01:58:07.907Z,20.19
2018-08-21T01:59:08.462Z,20.28
2018-08-21T02:00:09.020Z,20.21
2018-08-21T02:01:09.574Z,20.29
2018-08-21T02:02:10.121Z,20.32
2018-08-21T02:03:10.674Z,20.32
2018-08-21T02:04:11.243Z,20.28
2018-08-21T02:05:11.786Z,20.22
2018-08-21T02:06:12.341Z,20.32
2018-08-21T02:07:12.896Z,20.34
2018-08-21T02:08:13.447Z,20.25
2018-08-21T02:09:13.996Z,20.24
2018-08-21T02:10:14.554Z,20.19
2018-08-21T02:11:15.107Z,20.21
2018-08-21T02:12:15.657Z,20.34
2018-08-21T02:13:16.209Z,20.32
2018-08-21T02:14:16.757Z,20.25
2018-08-21T02:15:17.316Z,20.28
2018-08-21T02:16:17.876Z,20.29
2018-08-21T02:17:18.427Z,20.19
2018-08-21T02:18:18.974Z,20.19
2018-08-21T02:19:19.529Z,20.24
2018-08-21T02:20:20.090Z,20.32
2018-08-21T02:21:20.645Z,20.24
2018-08-21T02:22:21.195Z,20.25
2018-08-21T02:23:21.750Z,20.25
2018-08-21T02:24:22.301Z,20.25
2018-08-21T02:25:22.861Z,20.26
2018-08-21T02:26:23.416Z,20.22
2018-08-21T02:27:23.965Z,20.29
2018-08-21T02:28:24.518Z,20.24
2018-08-21T02:29:25.075Z,20.16
2018-08-21T02:30:25.632Z,20.19
2018-08-21T02:31:26.185Z,20.16
2018-08-21T02:32:26.743Z,20.28
2018-08-21T02:33:27.288Z,20.17
2018-08-21T02:34:27.849Z,20.26
2018-08-21T02:35:28.402Z,20.25
2018-08-21T02:36:28.959Z,20.13
2018-08-21T02:37:29.517Z,20.29
2018-08-21T02:38:30.074Z,20.22
2018-08-21T02:39:30.628Z,20.25
2018-08-21T02:40:31.186Z,20.19
2018-08-21T02:41:31.740Z,20.13
2018-08-21T02:42:32.293Z,20.14
2018-08-21T02:43:32.841Z,20.14
2018-08-21T02:44:33.390Z,20.17
2018-08-21T02:45:33.943Z,20.21
2018-08-21T02:46:34.504Z,20.22
2018-08-21T02:47:35.055Z,20.21
2018-08-21T02:48:35.610Z,20.14
2018-08-21T02:49:36.163Z,20.22
2018-08-21T02:50:36.721Z,20.28
2018-08-21T02:51:37.277Z,20.32
2018-08-21T02:52:37.853Z,20.25
2018-08-21T02:53:38.398Z,20.19
2018-08-21T02:54:38.945Z,20.22
2018-08-21T02:55:39.502Z,20.21
2018-08-21T02:56:40.059Z,20.24
2018-08-21T02:57:40.612Z,20.11
2018-08-21T02:58:41.165Z,20.21
2018-08-21T02:59:41.715Z,20.28
2018-08-21T03:00:42.265Z,20.22
2018-08-21T03:01:42.824Z,20.24
2018-08-21T03:02:43.378Z,20.19
2018-08-21T03:03:43.934Z,20.19
2018-08-21T03:04:44.484Z,20.19
2018-08-21T03:05:45.032Z,20.28
2018-08-21T03:06:45.588Z,20.31
2018-08-21T03:07:46.144Z,20.16
2018-08-21T03:08:46.694Z,20.28
2018-08-21T03:09:47.248Z,20.31
2018-08-21T03:10:47.804Z,20.09
2018-08-21T03:11:48.357Z,20.25
2018-08-21T03:12:48.915Z,20.28
2018-08-21T03:13:49.463Z,20.24
2018-08-21T03:14:50.019Z,20.21
2018-08-21T03:15:50.578Z,20.16
2018-08-21T03:16:51.134Z,20.14
2018-08-21T03:17:51.686Z,20.14
2018-08-21T03:18:52.241Z,20.11
2018-08-21T03:19:52.796Z,20.17
2018-08-21T03:20:53.351Z,20.11
2018-08-21T03:21:53.906Z,20.14
2018-08-21T03:22:54.461Z,20.13
2018-08-21T03:23:55.015Z,20.13
2018-08-21T03:24:55.571Z,20.13
2018-08-21T03:25:56.126Z,20.19
2018-08-21T03:26:56.682Z,20.17
2018-08-21T03:27:57.239Z,20.17
2018-08-21T03:28:57.790Z,20.10
2018-08-21T03:29:58.348Z,20.11
2018-08-21T03:30:58.898Z,20.11
2018-08-21T03:31:59.457Z,20.14
2018-08-21T03:33:00.007Z,20.09
2018-08-21T03:34:00.558Z,20.13
2018-08-21T03:35:01.115Z,20.03
2018-08-21T03:36:01.702Z,20.06
2018-08-21T03:37:02.213Z,20.04
2018-08-21T03:38:02.762Z,20.07
2018-08-21T03:39:03.321Z,20.02
2018-08-21T03:40:03.875Z,20.14
2018-08-21T03:41:04.433Z,20.10
2018-08-21T03:42:04.979Z,20.09
2018-08-21T03:43:05.534Z,20.13
2018-08-21T03:44:06.087Z,20.14
2018-08-21T03:45:06.638Z,20.14
2018-08-21T03:46:07.189Z,20.06
2018-08-21T03:47:07.743Z,20.16
2018-08-21T03:48:08.301Z,20.07
2018-08-21T03:49:08.853Z,20.14
2018-08-21T03:50:09.405Z,20.13
2018-08-21T03:51:09.963Z,20.09
2018-08-21T03:52:10.517Z,20.09
2018-08-21T03:53:11.064Z,20.16
2018-08-21T03:54:11.615Z,20.19
2018-08-21T03:55:12.168Z,20.17
2018-08-21T03:56:12.726Z,20.17
2018-08-21T03:57:13.276Z,20.17
2018-08-21T03:58:13.833Z,20.14
2018-08-21T03:59:14.387Z,20.14
2018-08-21T04:00:14.944Z,20.13
2018-08-21T04:01:15.500Z,20.14
2018-08-21T04:02:16.259Z,20.16
2018-08-21T04:03:16.813Z,20.24
2018-08-21T04:04:17.374Z,20.25
2018-08-21T04:05:17.927Z,20.21
2018-08-21T04:06:18.476Z,20.14
2018-08-21T04:07:19.028Z,20.17
2018-08-21T04:08:19.586Z,20.16
2018-08-21T04:09:20.143Z,20.14
2018-08-21T04:10:20.700Z,20.11
2018-08-21T04:11:21.256Z,20.11
2018-08-21T04:12:21.811Z,20.11
2018-08-21T04:13:22.359Z,20.10
2018-08-21T04:14:22.917Z,20.03
2018-08-21T04:15:23.481Z,20.02
2018-08-21T04:16:24.032Z,20.06
2018-08-21T04:17:24.591Z,20.04
2018-08-21T04:18:25.148Z,20.03
2018-08-21T04:19:25.704Z,19.98
2018-08-21T04:20:26.257Z,20.06
2018-08-21T04:21:26.810Z,19.99
2018-08-21T04:22:27.368Z,20.04
2018-08-21T04:23:27.923Z,19.99
2018-08-21T04:24:28.510Z,19.96
2018-08-21T04:25:29.033Z,19.98
2018-08-21T04:26:29.593Z,19.98
2018-08-21T04:27:30.147Z,19.94
2018-08-21T04:28:30.705Z,19.98
2018-08-21T04:29:31.258Z,20.02
2018-08-21T04:30:31.817Z,19.92
2018-08-21T04:31:32.367Z,19.98
2018-08-21T04:32:32.973Z,19.98
2018-08-21T04:33:33.476Z,19.96
2018-08-21T04:34:34.060Z,20.02
2018-08-21T04:35:34.592Z,19.99
2018-08-21T04:36:35.145Z,19.98
2018-08-21T04:37:35.703Z,20.03
2018-08-21T04:38:36.261Z,20.03
2018-08-21T04:39:36.817Z,19.99
2018-08-21T04:40:37.373Z,19.96
2018-08-21T04:41:37.937Z,19.99
2018-08-21T04:42:38.491Z,19.91
2018-08-21T04:43:39.048Z,19.81
2018-08-21T04:44:39.600Z,19.79
2018-08-21T04:45:40.198Z,19.89
2018-08-21T04:46:40.709Z,19.85
2018-08-21T04:47:41.268Z,19.88
2018-08-21T04:48:41.828Z,19.89
2018-08-21T04:49:42.391Z,19.92
2018-08-21T04:50:42.944Z,19.88
2018-08-21T04:51:43.507Z,20.04
2018-08-21T04:52:44.066Z,19.99
2018-08-21T04:53:44.631Z,19.99
2018-08-21T04:54:45.189Z,20.02
2018-08-21T04:55:45.749Z,20.06
2018-08-21T04:56:46.307Z,20.03
2018-08-21T04:57:46.880Z,19.99
2018-08-21T04:58:47.564Z,19.96
2018-08-21T04:59:48.004Z,19.87
2018-08-21T05:00:48.641Z,19.98
2018-08-21T05:01:49.188Z,19.98
2018-08-21T05:02:49.749Z,19.94
2018-08-21T05:03:50.315Z,19.98
2018-08-21T05:04:50.915Z,19.98
2018-08-21T05:05:51.511Z,20.02
2018-08-21T05:06:52.059Z,20.04
2018-08-21T05:07:52.637Z,19.98
2018-08-21T05:08:53.176Z,20.02
2018-08-21T05:09:53.732Z,20.03
2018-08-21T05:10:54.282Z,20.07
2018-08-21T05:11:54.845Z,20.06
2018-08-21T05:12:55.426Z,20.02
2018-08-21T05:13:55.989Z,20.03
2018-08-21T05:14:56.546Z,20.13
2018-08-21T05:15:57.111Z,20.09
2018-08-21T05:16:57.665Z,20.04
2018-08-21T05:17:58.246Z,20.03
2018-08-21T05:18:58.795Z,19.99
2018-08-21T05:19:59.359Z,19.99
2018-08-21T05:20:59.947Z,19.98
2018-08-21T05:22:00.511Z,20.02
2018-08-21T05:23:01.071Z,20.13
2018-08-21T05:24:01.669Z,20.13
2018-08-21T05:25:02.234Z,20.17
2018-08-21T05:26:02.836Z,20.11
2018-08-21T05:27:03.385Z,20.26
2018-08-21T05:28:03.943Z,20.31
2018-08-21T05:29:04.507Z,20.14
2018-08-21T05:30:05.063Z,20.25
2018-08-21T05:31:05.627Z,20.28
2018-08-21T05:32:06.189Z,20.28
2018-08-21T05:33:06.755Z,20.31
2018-08-21T05:34:07.318Z,20.39
2018-08-21T05:35:07.883Z,20.29
2018-08-21T05:36:08.447Z,20.34
2018-08-21T05:37:09.003Z,20.31
2018-08-21T05:38:09.565Z,20.26
2018-08-21T05:39:10.119Z,20.40
2018-08-21T05:40:10.680Z,20.34
2018-08-21T05:41:11.241Z,20.28
2018-08-21T05:42:11.801Z,20.17
2018-08-21T05:43:12.361Z,20.28
2018-08-21T05:44:12.924Z,20.22
2018-08-21T05:45:13.490Z,20.34
2018-08-21T05:46:14.054Z,20.24
2018-08-21T05:47:14.666Z,20.26
2018-08-21T05:48:15.217Z,20.42
2018-08-21T05:49:15.824Z,20.32
2018-08-21T05:50:16.350Z,20.32
2018-08-21T05:51:16.918Z,20.31
2018-08-21T05:52:17.477Z,20.31
2018-08-21T05:53:18.046Z,20.42
2018-08-21T05:54:18.608Z,20.40
2018-08-21T05:55:19.237Z,20.43
2018-08-21T05:56:19.770Z,20.52
2018-08-21T05:57:20.297Z,20.63
2018-08-21T05:58:20.863Z,20.65
2018-08-21T05:59:21.424Z,20.66
2018-08-21T06:00:21.983Z,20.69
2018-08-21T06:01:22.545Z,20.84
2018-08-21T06:02:23.105Z,20.84
2018-08-21T06:03:23.659Z,20.85
2018-08-21T06:04:24.223Z,20.95
2018-08-21T06:05:24.782Z,20.98
2018-08-21T06:06:25.334Z,21.05
2018-08-21T06:07:25.894Z,21.06
2018-08-21T06:08:26.458Z,21.15
2018-08-21T06:09:27.020Z,21.18
2018-08-21T06:10:27.581Z,21.17
2018-08-21T06:11:28.147Z,21.30
2018-08-21T06:12:28.734Z,21.27
2018-08-21T06:13:29.277Z,21.25
2018-08-21T06:14:29.863Z,21.30
2018-08-21T06:15:30.418Z,21.40
2018-08-21T06:16:30.982Z,21.39
2018-08-21T06:17:31.545Z,21.45
2018-08-21T06:18:32.106Z,21.39
2018-08-21T06:19:32.668Z,21.52
2018-08-21T06:20:33.228Z,21.52
2018-08-21T06:21:33.787Z,21.54
2018-08-21T06:22:34.346Z,21.61
2018-08-21T06:23:34.928Z,21.62
2018-08-21T06:24:35.502Z,21.67
2018-08-21T06:25:36.034Z,21.75
2018-08-21T06:26:36.598Z,21.75
2018-08-21T06:27:37.178Z,21.80
2018-08-21T06:28:37.725Z,21.82
2018-08-21T06:29:38.284Z,21.80
2018-08-21T06:30:38.840Z,21.91
2018-08-21T06:31:39.407Z,21.92
2018-08-21T06:32:39.971Z,21.86
2018-08-21T06:33:40.531Z,21.86
2018-08-21T06:34:41.094Z,21.86
2018-08-21T06:35:41.661Z,21.79
2018-08-21T06:36:42.254Z,21.79
2018-08-21T06:37:42.816Z,21.79
2018-08-21T06:38:43.382Z,21.79
2018-08-21T06:39:44.011Z,21.82
2018-08-21T06:40:44.521Z,21.79
2018-08-21T06:41:45.075Z,21.85
2018-08-21T06:42:45.641Z,21.79
2018-08-21T06:43:46.196Z,21.91
2018-08-21T06:44:46.760Z,21.89
2018-08-21T06:45:47.348Z,21.95
2018-08-21T06:46:47.924Z,21.89
2018-08-21T06:47:48.498Z,21.93
2018-08-21T06:48:49.077Z,22.02
2018-08-21T06:49:49.626Z,22.07
2018-08-21T06:50:50.190Z,21.92
2018-08-21T06:51:50.759Z,22.05
2018-08-21T06:52:51.327Z,21.95
2018-08-21T06:53:51.900Z,22.03
2018-08-21T06:54:52.460Z,22.03
2018-08-21T06:55:53.023Z,22.11
2018-08-21T06:56:53.587Z,22.28
2018-08-21T06:57:54.172Z,22.23
2018-08-21T06:58:54.719Z,22.28
2018-08-21T06:59:55.275Z,22.24
2018-08-21T07:00:55.840Z,22.18
2018-08-21T07:01:56.458Z,22.23
2018-08-21T07:02:57.019Z,22.31
2018-08-21T07:03:57.587Z,22.26
2018-08-21T07:04:58.154Z,22.21
2018-08-21T07:05:58.729Z,22.24
2018-08-21T07:06:59.324Z,22.38
2018-08-21T07:07:59.910Z,22.40
2018-08-21T07:09:00.481Z,22.50
2018-08-21T07:10:01.046Z,22.48
2018-08-21T07:11:01.625Z,22.58
2018-08-21T07:12:02.177Z,22.50
2018-08-21T07:13:02.741Z,22.53
2018-08-21T07:14:03.307Z,22.51
2018-08-21T07:15:03.893Z,22.65
2018-08-21T07:16:04.435Z,22.65
2018-08-21T07:17:04.998Z,22.73
2018-08-21T07:18:05.569Z,22.73
2018-08-21T07:19:06.124Z,22.63
2018-08-21T07:20:06.713Z,22.68
2018-08-21T07:21:07.265Z,22.68
2018-08-21T07:22:07.864Z,22.66
2018-08-21T07:23:08.398Z,22.69
2018-08-21T07:24:08.963Z,22.85
2018-08-21T07:25:09.529Z,22.73
2018-08-21T07:26:10.089Z,22.83
2018-08-21T07:27:10.652Z,22.91
2018-08-21T07:28:11.218Z,22.85
2018-08-21T07:29:11.800Z,22.93
2018-08-21T07:30:12.344Z,22.93
2018-08-21T07:31:12.909Z,22.90
2018-08-21T07:32:13.475Z,22.99
2018-08-21T07:33:14.037Z,22.93
2018-08-21T07:34:14.596Z,22.99
2018-08-21T07:35:15.219Z,22.93
2018-08-21T07:36:15.724Z,22.97
2018-08-21T07:37:16.291Z,22.97
2018-08-21T07:38:16.858Z,22.95
2018-08-21T07:39:17.419Z,22.99
2018-08-21T07:40:17.984Z,23.10
2018-08-21T07:41:18.554Z,23.20
2018-08-21T07:42:19.115Z,23.23
2018-08-21T07:43:19.678Z,23.35
2018-08-21T07:44:20.248Z,23.40
2018-08-21T07:45:20.809Z,23.46
2018-08-21T07:46:21.401Z,23.47
2018-08-21T07:47:21.932Z,23.61
2018-08-21T07:48:22.498Z,23.71
2018-08-21T07:49:23.057Z,23.71
2018-08-21T07:50:23.622Z,23.72
2018-08-21T07:51:24.183Z,23.80
2018-08-21T07:52:24.749Z,23.83
2018-08-21T07:53:25.316Z,23.98
2018-08-21T07:54:25.885Z,23.94
2018-08-21T07:55:26.456Z,24.03
2018-08-21T07:56:27.024Z,24.16
2018-08-21T07:57:27.599Z,24.23
2018-08-21T07:58:28.166Z,24.17
2018-08-21T07:59:28.727Z,24.27
2018-08-21T08:00:29.294Z,24.36
2018-08-21T08:01:29.862Z,24.41
2018-08-21T08:02:30.424Z,24.57
2018-08-21T08:03:30.994Z,24.66
2018-08-21T08:04:31.562Z,24.76
2018-08-21T08:05:32.125Z,24.83
2018-08-21T08:06:32.692Z,24.99
2018-08-21T08:07:33.259Z,25.02
2018-08-21T08:08:33.835Z,25.16
2018-08-21T08:09:34.401Z,25.17
2018-08-21T08:10:34.976Z,25.21
2018-08-21T08:11:35.547Z,25.36
2018-08-21T08:12:36.115Z,25.43
2018-08-21T08:13:36.735Z,25.54
2018-08-21T08:14:37.250Z,25.72
2018-08-21T08:15:37.814Z,25.71
2018-08-21T08:16:38.391Z,25.75
2018-08-21T08:17:38.953Z,25.99
2018-08-21T08:18:39.523Z,26.24
2018-08-21T08:19:40.091Z,26.37
2018-08-21T08:20:40.660Z,26.62
2018-08-21T08:21:41.230Z,26.91
2018-08-21T08:22:41.798Z,27.02
2018-08-21T08:23:42.357Z,27.08
2018-08-21T08:24:42.931Z,27.32
2018-08-21T08:25:43.496Z,27.48
2018-08-21T08:26:44.070Z,27.52
2018-08-21T08:27:44.636Z,27.54
2018-08-21T08:28:45.212Z,27.52
2018-08-21T08:29:45.777Z,27.54
2018-08-21T08:30:46.349Z,27.62
2018-08-21T08:31:46.916Z,27.51
2018-08-21T08:32:47.489Z,27.50
2018-08-21T08:33:48.077Z,27.58
2018-08-21T08:34:48.633Z,27.59
2018-08-21T08:35:49.218Z,27.52
2018-08-21T08:36:49.777Z,27.66
2018-08-21T08:37:50.344Z,27.54
2018-08-21T08:38:50.945Z,27.61
2018-08-21T08:39:51.493Z,27.76
2018-08-21T08:40:52.062Z,27.77
2018-08-21T08:41:52.646Z,27.83
2018-08-21T08:42:53.241Z,27.88
2018-08-21T08:43:53.809Z,27.85
2018-08-21T08:44:54.382Z,27.96
2018-08-21T08:45:54.950Z,28.17
2018-08-21T08:46:55.528Z,28.36
2018-08-21T08:47:56.095Z,28.35
2018-08-21T08:48:56.675Z,28.38
2018-08-21T08:49:57.237Z,28.35
2018-08-21T08:50:57.810Z,28.44
2018-08-21T08:51:58.378Z,28.36
2018-08-21T08:52:58.946Z,28.26
2018-08-21T08:53:59.513Z,28.11
2018-08-21T08:55:00.087Z,27.96
2018-08-21T08:56:00.656Z,27.96
2018-08-21T08:57:01.226Z,27.93
2018-08-21T08:58:01.798Z,27.95
2018-08-21T08:59:02.422Z,28.00
2018-08-21T09:00:02.990Z,28.14
2018-08-21T09:01:03.562Z,28.08
2018-08-21T09:02:04.138Z,27.98
2018-08-21T09:03:04.701Z,27.98
2018-08-21T09:04:05.270Z,27.81
2018-08-21T09:05:05.942Z,27.78
2018-08-21T09:06:06.436Z,27.76
2018-08-21T09:07:06.971Z,27.78
2018-08-21T09:08:07.545Z,27.67
2018-08-21T09:09:08.113Z,27.67
2018-08-21T09:10:08.680Z,27.68
2018-08-21T09:11:09.248Z,27.62
2018-08-21T09:12:09.818Z,27.71
2018-08-21T09:13:10.388Z,27.52
2018-08-21T09:14:10.959Z,27.51
2018-08-21T09:15:11.554Z,27.47
2018-08-21T09:16:12.092Z,27.40
2018-08-21T09:17:12.654Z,27.51
2018-08-21T09:18:13.227Z,27.66
2018-08-21T09:19:13.799Z,27.74
2018-08-21T09:20:14.364Z,27.81
2018-08-21T09:21:14.931Z,27.74
2018-08-21T09:22:15.498Z,27.78
2018-08-21T09:23:16.065Z,27.70
2018-08-21T09:24:16.631Z,27.77
2018-08-21T09:25:17.200Z,27.88
2018-08-21T09:26:17.773Z,27.90
2018-08-21T09:27:18.364Z,28.26
2018-08-21T09:28:18.923Z,28.20
2018-08-21T09:29:19.515Z,28.33
2018-08-21T09:30:20.072Z,28.30
2018-08-21T09:31:20.637Z,28.41
2018-08-21T09:32:21.208Z,28.51
2018-08-21T09:33:21.782Z,28.75
2018-08-21T09:34:22.345Z,28.94
2018-08-21T09:35:22.910Z,29.07
2018-08-21T09:36:23.485Z,29.23
2018-08-21T09:37:24.058Z,29.20
2018-08-21T09:38:24.627Z,29.22
2018-08-21T09:39:25.222Z,29.39
2018-08-21T09:40:25.789Z,29.79
2018-08-21T09:41:26.366Z,30.09
2018-08-21T09:42:26.931Z,30.12
2018-08-21T09:43:27.507Z,30.22
2018-08-21T09:44:28.080Z,30.27
2018-08-21T09:45:28.653Z,30.66
2018-08-21T09:46:29.230Z,30.99
2018-08-21T09:47:29.805Z,31.52
2018-08-21T09:48:30.380Z,32.02
2018-08-21T09:49:30.951Z,32.17
2018-08-21T09:50:31.528Z,32.51
2018-08-21T09:51:32.096Z,32.73
2018-08-21T09:52:32.669Z,32.85
2018-08-21T09:53:33.249Z,33.23
2018-08-21T09:54:33.817Z,33.46
2018-08-21T09:55:34.391Z,33.83
2018-08-21T09:56:34.966Z,33.46
2018-08-21T09:57:35.540Z,33.04
2018-08-21T09:58:36.114Z,32.88
2018-08-21T09:59:36.682Z,32.55
2018-08-21T10:00:37.261Z,32.55
2018-08-21T10:01:37.834Z,32.73
2018-08-21T10:02:38.416Z,32.81
2018-08-21T10:03:38.978Z,32.89
2018-08-21T10:04:39.567Z,32.86
2018-08-21T10:05:40.140Z,32.56
2018-08-21T10:06:40.763Z,32.52
2018-08-21T10:07:41.286Z,32.48
2018-08-21T10:08:41.856Z,32.36
2018-08-21T10:09:42.432Z,32.05
2018-08-21T10:10:43.007Z,31.99
2018-08-21T10:11:43.583Z,31.88
2018-08-21T10:12:44.160Z,31.80
2018-08-21T10:13:44.731Z,31.84
2018-08-21T10:14:45.305Z,31.73
2018-08-21T10:15:45.878Z,31.64
2018-08-21T10:16:46.449Z,31.57
2018-08-21T10:17:47.018Z,31.31
2018-08-21T10:18:47.586Z,31.18
2018-08-21T10:19:48.159Z,31.10
2018-08-21T10:20:48.730Z,31.20
2018-08-21T10:21:49.302Z,31.27
2018-08-21T10:22:49.890Z,31.30
2018-08-21T10:23:50.466Z,31.34
2018-08-21T10:24:51.044Z,31.47
2018-08-21T10:25:51.616Z,31.76
2018-08-21T10:26:52.190Z,32.15
2018-08-21T10:27:52.757Z,32.41
2018-08-21T10:28:53.321Z,32.52
2018-08-21T10:29:53.904Z,32.67
2018-08-21T10:30:54.484Z,32.71
2018-08-21T10:31:55.056Z,32.95
2018-08-21T10:32:55.626Z,33.17
2018-08-21T10:33:56.200Z,33.11
2018-08-21T10:34:56.778Z,33.20
2018-08-21T10:35:57.348Z,33.23
2018-08-21T10:36:57.928Z,33.36
2018-08-21T10:37:58.502Z,33.30
2018-08-21T10:38:59.075Z,33.34
2018-08-21T10:39:59.652Z,33.36
2018-08-21T10:41:00.219Z,33.31
2018-08-21T10:42:00.797Z,33.11
2018-08-21T10:43:01.375Z,33.11
2018-08-21T10:44:01.951Z,33.34
2018-08-21T10:45:02.523Z,33.48
2018-08-21T10:46:03.096Z,33.56
2018-08-21T10:47:03.670Z,33.68
2018-08-21T10:48:04.251Z,33.50
2018-08-21T10:49:04.825Z,33.36
2018-08-21T10:50:05.401Z,33.03
2018-08-21T10:51:05.977Z,32.96
2018-08-21T10:52:06.545Z,32.91
2018-08-21T10:53:07.123Z,32.98
2018-08-21T10:54:07.689Z,33.10
2018-08-21T10:55:08.253Z,33.37
2018-08-21T10:56:08.829Z,33.46
2018-08-21T10:57:09.407Z,33.70
2018-08-21T10:58:09.981Z,33.49
2018-08-21T10:59:10.559Z,33.18
2018-08-21T11:00:11.135Z,32.98
2018-08-21T11:01:11.714Z,33.10
2018-08-21T11:02:12.378Z,33.30
2018-08-21T11:03:12.857Z,33.37
2018-08-21T11:04:13.444Z,33.53
2018-08-21T11:05:14.009Z,33.87
2018-08-21T11:06:14.611Z,34.01
2018-08-21T11:07:15.165Z,34.01
2018-08-21T11:08:15.740Z,33.74
2018-08-21T11:09:16.331Z,33.53
2018-08-21T11:10:16.901Z,33.31
2018-08-21T11:11:17.483Z,33.20
2018-08-21T11:12:18.064Z,32.88
2018-08-21T11:13:18.631Z,32.88
2018-08-21T11:14:19.200Z,32.89
2018-08-21T11:15:19.776Z,32.66
2018-08-21T11:16:20.342Z,32.73
2018-08-21T11:17:20.911Z,32.67
2018-08-21T11:18:21.488Z,32.76
2018-08-21T11:19:22.064Z,32.91
2018-08-21T11:20:22.641Z,32.96
2018-08-21T11:21:23.238Z,32.85
2018-08-21T11:22:23.801Z,32.88
2018-08-21T11:23:24.371Z,33.07
2018-08-21T11:24:24.947Z,33.60
2018-08-21T11:25:25.520Z,34.14
2018-08-21T11:26:26.090Z,34.54
2018-08-21T11:27:26.661Z,34.93
2018-08-21T11:28:27.246Z,35.32
2018-08-21T11:29:27.816Z,35.77
2018-08-21T11:30:28.397Z,35.82
2018-08-21T11:31:28.996Z,35.63
2018-08-21T11:32:29.557Z,35.55
2018-08-21T11:33:30.131Z,35.25
2018-08-21T11:34:30.711Z,35.18
2018-08-21T11:35:31.286Z,35.36
2018-08-21T11:36:31.864Z,35.45
2018-08-21T11:37:32.431Z,35.35
2018-08-21T11:38:33.015Z,35.32
2018-08-21T11:39:33.593Z,34.98
2018-08-21T11:40:34.169Z,34.76
2018-08-21T11:41:34.752Z,34.29
2018-08-21T11:42:35.329Z,33.82
2018-08-21T11:43:35.910Z,33.49
2018-08-21T11:44:36.486Z,33.43
2018-08-21T11:45:37.059Z,33.43
2018-08-21T11:46:37.641Z,33.46
2018-08-21T11:47:38.219Z,33.92
2018-08-21T11:48:38.793Z,34.24
2018-08-21T11:49:39.380Z,34.35
2018-08-21T11:50:39.942Z,34.64
2018-08-21T11:51:40.520Z,34.56
2018-08-21T11:52:41.112Z,34.24
2018-08-21T11:53:41.682Z,34.17
2018-08-21T11:54:42.272Z,33.95
2018-08-21T11:55:42.836Z,33.72
2018-08-21T11:56:43.414Z,33.74
2018-08-21T11:57:43.984Z,33.36
2018-08-21T11:58:44.561Z,33.33
2018-08-21T11:59:45.144Z,33.05
2018-08-21T12:00:45.717Z,32.85
2018-08-21T12:01:46.329Z,32.92
2018-08-21T12:02:46.880Z,33.05
2018-08-21T12:03:47.460Z,32.95
2018-08-21T12:04:48.028Z,32.74
2018-08-21T12:05:48.606Z,32.70
2018-08-21T12:06:49.184Z,32.71
2018-08-21T12:07:49.761Z,32.98
2018-08-21T12:08:50.425Z,33.03
2018-08-21T12:09:50.892Z,33.13
2018-08-21T12:10:51.466Z,33.28
2018-08-21T12:11:52.042Z,33.30
2018-08-21T12:12:52.617Z,32.91
2018-08-21T12:13:53.197Z,32.81
2018-08-21T12:14:53.762Z,32.69
2018-08-21T12:15:54.338Z,32.43
2018-08-21T12:16:54.900Z,32.29
2018-08-21T12:17:55.466Z,32.34
2018-08-21T12:18:56.034Z,32.32
2018-08-21T12:19:56.611Z,32.32
2018-08-21T12:20:57.188Z,32.34
2018-08-21T12:21:57.765Z,32.39
2018-08-21T12:22:58.335Z,32.33
2018-08-21T12:23:58.909Z,32.34
2018-08-21T12:24:59.481Z,32.17
2018-08-21T12:26:00.048Z,32.32
2018-08-21T12:27:00.614Z,32.69
2018-08-21T12:28:01.190Z,32.77
2018-08-21T12:29:01.763Z,33.11
2018-08-21T12:30:02.394Z,33.45
2018-08-21T12:31:02.903Z,33.49
2018-08-21T12:32:03.475Z,33.58
2018-08-21T12:33:04.049Z,33.77
2018-08-21T12:34:04.640Z,34.21
2018-08-21T12:35:05.191Z,34.74
2018-08-21T12:36:05.764Z,34.74
2018-08-21T12:37:06.336Z,34.84
2018-08-21T12:38:06.917Z,34.88
2018-08-21T12:39:07.489Z,34.64
2018-08-21T12:40:08.062Z,34.73
2018-08-21T12:41:08.644Z,34.88
2018-08-21T12:42:09.214Z,34.84
2018-08-21T12:43:09.785Z,34.67
2018-08-21T12:44:10.357Z,34.38
2018-08-21T12:45:10.933Z,34.21
2018-08-21T12:46:11.506Z,34.07
2018-08-21T12:47:12.080Z,34.05
2018-08-21T12:48:12.661Z,33.98
2018-08-21T12:49:13.235Z,33.95
2018-08-21T12:50:13.814Z,33.55
2018-08-21T12:51:14.382Z,33.95
2018-08-21T12:52:14.956Z,34.04
2018-08-21T12:53:15.532Z,33.95
2018-08-21T12:54:16.107Z,33.61
2018-08-21T12:55:16.680Z,33.38
2018-08-21T12:56:17.250Z,33.41
2018-08-21T12:57:18.017Z,33.28
2018-08-21T12:58:18.597Z,33.18
2018-08-21T12:59:19.166Z,33.04